sensor_id;sensor_type;location;lat;lon;timestamp;pressure;altitude;pressure_sealevel;temperature;humidity
54994;BME280;40891;47.242;8.648;2024-01-06T00:01:59;95150.00;;;5.72;100.00
54994;BME280;40891;47.242;8.648;2024-01-06T00:04:25;95156.88;;;5.67;100.00
54994;BME280;40891;47.242;8.648;2024-01-06T00:06:50;95148.94;;;5.69;100.00
54994;BME280;40891;47.242;8.648;2024-01-06T00:09:15;95156.41;;;5.69;100.00
54994;BME280;40891;47.242;8.648;2024-01-06T00:11:40;95156.88;;;5.67;100.00
54994;BME280;40891;47.242;8.648;2024-01-06T00:14:06;95158.41;;;5.68;100.00
54994;BME280;40891;47.242;8.648;2024-01-06T00:16:31;95154.69;;;5.62;100.00
54994;BME280;40891;47.242;8.648;2024-01-06T00:18:56;95158.41;;;5.68;100.00
54994;BME280;40891;47.242;8.648;2024-01-06T00:21:21;95167.72;;;5.62;100.00
54994;BME280;40891;47.242;8.648;2024-01-06T00:23:47;95166.19;;;5.61;100.00
54994;BME280;40891;47.242;8.648;2024-01-06T00:26:12;95166.19;;;5.61;100.00
54994;BME280;40891;47.242;8.648;2024-01-06T00:28:38;95161.75;;;5.63;100.00
54994;BME280;40891;47.242;8.648;2024-01-06T00:31:05;95173.81;;;5.57;100.00
54994;BME280;40891;47.242;8.648;2024-01-06T00:33:30;95170.19;;;5.69;100.00
54994;BME280;40891;47.242;8.648;2024-01-06T00:35:56;95178.16;;;5.67;100.00
54994;BME280;40891;47.242;8.648;2024-01-06T00:38:21;95176.38;;;5.51;100.00
54994;BME280;40891;47.242;8.648;2024-01-06T00:40:46;95173.69;;;5.60;100.00
54994;BME280;40891;47.242;8.648;2024-01-06T00:43:12;95175.88;;;5.65;100.00
54994;BME280;40891;47.242;8.648;2024-01-06T00:45:37;95181.13;;;5.50;100.00
54994;BME280;40891;47.242;8.648;2024-01-06T00:48:03;95183.38;;;5.65;100.00
54994;BME280;40891;47.242;8.648;2024-01-06T00:50:28;95178.69;;;5.53;100.00
54994;BME280;40891;47.242;8.648;2024-01-06T00:52:54;95176.75;;;5.62;100.00
54994;BME280;40891;47.242;8.648;2024-01-06T00:55:19;95178.69;;;5.53;100.00
54994;BME280;40891;47.242;8.648;2024-01-06T00:57:45;95184.66;;;5.51;100.00
54994;BME280;40891;47.242;8.648;2024-01-06T01:00:11;95202.53;;;5.46;100.00
54994;BME280;40891;47.242;8.648;2024-01-06T01:02:36;95184.47;;;5.45;100.00
54994;BME280;40891;47.242;8.648;2024-01-06T01:05:02;95188.94;;;5.52;100.00
54994;BME280;40891;47.242;8.648;2024-01-06T01:07:27;95195.72;;;5.38;100.00
54994;BME280;40891;47.242;8.648;2024-01-06T01:09:53;95201.81;;;5.33;100.00
54994;BME280;40891;47.242;8.648;2024-01-06T01:12:18;95202.06;;;5.26;100.00
54994;BME280;40891;47.242;8.648;2024-01-06T01:14:43;95209.19;;;5.36;100.00
54994;BME280;40891;47.242;8.648;2024-01-06T01:17:08;95213.16;;;5.35;100.00
54994;BME280;40891;47.242;8.648;2024-01-06T01:19:34;95220.31;;;5.33;100.00
54994;BME280;40891;47.242;8.648;2024-01-06T01:21:59;95224.69;;;5.43;100.00
54994;BME280;40891;47.242;8.648;2024-01-06T01:24:24;95227.72;;;5.36;100.00
54994;BME280;40891;47.242;8.648;2024-01-06T01:26:50;95232.19;;;5.42;100.00
54994;BME280;40891;47.242;8.648;2024-01-06T01:29:16;95233.44;;;5.41;100.00
54994;BME280;40891;47.242;8.648;2024-01-06T01:31:42;95231.34;;;5.33;100.00
54994;BME280;40891;47.242;8.648;2024-01-06T01:34:07;95240.53;;;5.30;100.00
54994;BME280;40891;47.242;8.648;2024-01-06T01:36:32;95243.09;;;5.12;100.00
54994;BME280;40891;47.242;8.648;2024-01-06T01:38:58;95248.19;;;5.13;100.00
54994;BME280;40891;47.242;8.648;2024-01-06T01:41:24;95246.00;;;5.08;100.00
54994;BME280;40891;47.242;8.648;2024-01-06T01:43:50;95249.63;;;5.05;100.00
54994;BME280;40891;47.242;8.648;2024-01-06T01:46:25;95248.22;;;5.01;100.00
54994;BME280;40891;47.242;8.648;2024-01-06T01:48:50;95241.69;;;5.07;100.00
54994;BME280;40891;47.242;8.648;2024-01-06T01:51:17;95242.25;;;5.02;100.00
54994;BME280;40891;47.242;8.648;2024-01-06T01:53:42;95246.22;;;5.01;100.00
54994;BME280;40891;47.242;8.648;2024-01-06T01:56:08;95239.06;;;5.04;100.00
54994;BME280;40891;47.242;8.648;2024-01-06T01:58:33;95245.13;;;4.99;100.00
54994;BME280;40891;47.242;8.648;2024-01-06T02:00:59;95249.63;;;5.05;100.00
54994;BME280;40891;47.242;8.648;2024-01-06T02:03:24;95258.44;;;5.00;100.00
54994;BME280;40891;47.242;8.648;2024-01-06T02:05:50;95255.38;;;4.98;100.00
54994;BME280;40891;47.242;8.648;2024-01-06T02:08:15;95265.75;;;4.94;100.00
54994;BME280;40891;47.242;8.648;2024-01-06T02:10:41;95259.78;;;4.83;100.00
54994;BME280;40891;47.242;8.648;2024-01-06T02:13:08;95259.69;;;4.87;100.00
54994;BME280;40891;47.242;8.648;2024-01-06T02:15:34;95260.00;;;4.89;100.00
54994;BME280;40891;47.242;8.648;2024-01-06T02:17:59;95258.69;;;4.93;100.00
54994;BME280;40891;47.242;8.648;2024-01-06T02:20:25;95261.53;;;5.02;100.00
54994;BME280;40891;47.242;8.648;2024-01-06T02:22:51;95255.47;;;5.07;100.00
54994;BME280;40891;47.242;8.648;2024-01-06T02:25:18;95263.31;;;4.96;100.00
54994;BME280;40891;47.242;8.648;2024-01-06T02:27:43;95257.75;;;5.09;100.00
54994;BME280;40891;47.242;8.648;2024-01-06T02:30:09;95262.84;;;5.10;100.00
54994;BME280;40891;47.242;8.648;2024-01-06T02:32:34;95262.75;;;5.01;100.00
54994;BME280;40891;47.242;8.648;2024-01-06T02:34:59;95266.06;;;4.96;100.00
54994;BME280;40891;47.242;8.648;2024-01-06T02:37:25;95267.41;;;4.92;100.00
54994;BME280;40891;47.242;8.648;2024-01-06T02:39:51;95277.03;;;5.09;100.00
54994;BME280;40891;47.242;8.648;2024-01-06T02:42:16;95277.63;;;5.04;100.00
54994;BME280;40891;47.242;8.648;2024-01-06T02:44:42;95284.47;;;4.99;100.00
54994;BME280;40891;47.242;8.648;2024-01-06T02:47:07;95274.88;;;5.04;100.00
54994;BME280;40891;47.242;8.648;2024-01-06T02:49:32;95282.03;;;5.01;100.00
54994;BME280;40891;47.242;8.648;2024-01-06T02:51:58;95284.34;;;4.90;100.00
54994;BME280;40891;47.242;8.648;2024-01-06T02:54:23;95285.34;;;4.83;100.00
54994;BME280;40891;47.242;8.648;2024-01-06T02:56:48;95282.03;;;5.01;100.00
54994;BME280;40891;47.242;8.648;2024-01-06T02:59:13;95288.97;;;4.93;100.00
54994;BME280;40891;47.242;8.648;2024-01-06T03:01:39;95289.09;;;4.90;100.00
54994;BME280;40891;47.242;8.648;2024-01-06T03:04:04;95282.72;;;4.80;100.00
54994;BME280;40891;47.242;8.648;2024-01-06T03:06:29;95274.78;;;4.82;100.00
54994;BME280;40891;47.242;8.648;2024-01-06T03:08:54;95286.44;;;4.86;100.00
54994;BME280;40891;47.242;8.648;2024-01-06T03:11:20;95282.50;;;4.87;100.00
54994;BME280;40891;47.242;8.648;2024-01-06T03:13:45;95290.94;;;4.93;100.00
54994;BME280;40891;47.242;8.648;2024-01-06T03:16:11;95289.06;;;5.02;100.00
54994;BME280;40891;47.242;8.648;2024-01-06T03:18:36;95283.00;;;4.95;100.00
54994;BME280;40891;47.242;8.648;2024-01-06T03:21:02;95291.09;;;4.89;100.00
54994;BME280;40891;47.242;8.648;2024-01-06T03:23:27;95295.72;;;4.92;100.00
54994;BME280;40891;47.242;8.648;2024-01-06T03:25:52;95291.97;;;4.86;100.00
54994;BME280;40891;47.242;8.648;2024-01-06T03:28:18;95294.63;;;4.90;100.00
54994;BME280;40891;47.242;8.648;2024-01-06T03:30:43;95292.59;;;4.90;100.00
54994;BME280;40891;47.242;8.648;2024-01-06T03:33:08;95297.78;;;4.88;100.00
54994;BME280;40891;47.242;8.648;2024-01-06T03:35:33;95303.97;;;4.92;100.00
54994;BME280;40891;47.242;8.648;2024-01-06T03:37:59;95306.28;;;4.94;100.00
54994;BME280;40891;47.242;8.648;2024-01-06T03:40:24;95305.72;;;4.86;100.00
54994;BME280;40891;47.242;8.648;2024-01-06T03:42:49;95313.44;;;4.78;100.00
54994;BME280;40891;47.242;8.648;2024-01-06T03:45:14;95308.84;;;4.75;100.00
54994;BME280;40891;47.242;8.648;2024-01-06T03:47:40;95307.16;;;4.78;100.00
54994;BME280;40891;47.242;8.648;2024-01-06T03:50:05;95313.00;;;4.80;100.00
54994;BME280;40891;47.242;8.648;2024-01-06T03:52:31;95311.38;;;4.82;100.00
54994;BME280;40891;47.242;8.648;2024-01-06T03:54:56;95307.81;;;4.82;100.00
54994;BME280;40891;47.242;8.648;2024-01-06T03:57:21;95315.31;;;4.81;100.00
54994;BME280;40891;47.242;8.648;2024-01-06T03:59:47;95313.97;;;4.86;100.00
54994;BME280;40891;47.242;8.648;2024-01-06T04:02:12;95314.75;;;4.87;100.00
54994;BME280;40891;47.242;8.648;2024-01-06T04:04:37;95315.84;;;5.02;100.00
54994;BME280;40891;47.242;8.648;2024-01-06T04:07:03;95320.59;;;5.01;100.00
54994;BME280;40891;47.242;8.648;2024-01-06T04:09:28;95327.41;;;5.09;100.00
54994;BME280;40891;47.242;8.648;2024-01-06T04:11:53;95325.19;;;5.04;100.00
54994;BME280;40891;47.242;8.648;2024-01-06T04:14:18;95327.06;;;5.07;100.00
54994;BME280;40891;47.242;8.648;2024-01-06T04:16:44;95327.97;;;4.92;100.00
54994;BME280;40891;47.242;8.648;2024-01-06T04:19:09;95328.41;;;4.90;100.00
54994;BME280;40891;47.242;8.648;2024-01-06T04:21:36;95334.69;;;4.91;100.00
54994;BME280;40891;47.242;8.648;2024-01-06T04:24:02;95340.19;;;4.78;100.00
54994;BME280;40891;47.242;8.648;2024-01-06T04:26:27;95337.22;;;4.72;100.00
54994;BME280;40891;47.242;8.648;2024-01-06T04:28:52;95340.97;;;4.78;100.00
54994;BME280;40891;47.242;8.648;2024-01-06T04:31:18;95342.41;;;4.83;100.00
54994;BME280;40891;47.242;8.648;2024-01-06T04:33:43;95341.19;;;4.71;100.00
54994;BME280;40891;47.242;8.648;2024-01-06T04:36:08;95345.50;;;4.72;100.00
54994;BME280;40891;47.242;8.648;2024-01-06T04:38:33;95349.03;;;4.73;100.00
54994;BME280;40891;47.242;8.648;2024-01-06T04:40:59;95346.59;;;4.62;100.00
54994;BME280;40891;47.242;8.648;2024-01-06T04:43:24;95356.94;;;4.58;100.00
54994;BME280;40891;47.242;8.648;2024-01-06T04:45:49;95354.97;;;4.59;100.00
54994;BME280;40891;47.242;8.648;2024-01-06T04:48:15;95354.50;;;4.60;100.00
54994;BME280;40891;47.242;8.648;2024-01-06T04:50:40;95356.38;;;4.63;100.00
54994;BME280;40891;47.242;8.648;2024-01-06T04:53:06;95364.44;;;4.70;100.00
54994;BME280;40891;47.242;8.648;2024-01-06T04:55:31;95354.53;;;4.73;100.00
54994;BME280;40891;47.242;8.648;2024-01-06T04:57:56;95364.19;;;4.65;100.00
54994;BME280;40891;47.242;8.648;2024-01-06T05:00:22;95363.22;;;4.59;100.00
54994;BME280;40891;47.242;8.648;2024-01-06T05:02:47;95360.47;;;4.59;100.00
54994;BME280;40891;47.242;8.648;2024-01-06T05:05:12;95371.81;;;4.61;100.00
54994;BME280;40891;47.242;8.648;2024-01-06T05:07:38;95369.81;;;4.49;100.00
54994;BME280;40891;47.242;8.648;2024-01-06T05:10:03;95373.78;;;4.60;100.00
54994;BME280;40891;47.242;8.648;2024-01-06T05:12:29;95371.56;;;4.55;100.00
54994;BME280;40891;47.242;8.648;2024-01-06T05:14:54;95374.66;;;4.57;100.00
54994;BME280;40891;47.242;8.648;2024-01-06T05:17:19;95378.06;;;4.74;100.00
54994;BME280;40891;47.242;8.648;2024-01-06T05:19:44;95385.13;;;4.75;100.00
54994;BME280;40891;47.242;8.648;2024-01-06T05:22:10;95386.72;;;4.47;100.00
54994;BME280;40891;47.242;8.648;2024-01-06T05:24:35;95389.94;;;4.46;100.00
54994;BME280;40891;47.242;8.648;2024-01-06T05:27:01;95383.69;;;4.58;100.00
54994;BME280;40891;47.242;8.648;2024-01-06T05:29:26;95385.81;;;4.38;100.00
54994;BME280;40891;47.242;8.648;2024-01-06T05:31:52;95399.63;;;4.50;100.00
54994;BME280;40891;47.242;8.648;2024-01-06T05:34:17;95395.19;;;4.40;100.00
54994;BME280;40891;47.242;8.648;2024-01-06T05:36:43;95399.44;;;4.29;100.00
54994;BME280;40891;47.242;8.648;2024-01-06T05:39:08;95398.72;;;4.41;100.00
54994;BME280;40891;47.242;8.648;2024-01-06T05:41:40;95391.78;;;4.36;100.00
54994;BME280;40891;47.242;8.648;2024-01-06T05:44:06;95398.31;;;4.42;100.00
54994;BME280;40891;47.242;8.648;2024-01-06T05:46:31;95397.06;;;4.43;100.00
54994;BME280;40891;47.242;8.648;2024-01-06T05:48:57;95399.13;;;4.27;100.00
54994;BME280;40891;47.242;8.648;2024-01-06T05:51:22;95401.84;;;4.14;100.00
54994;BME280;40891;47.242;8.648;2024-01-06T05:53:48;95414.81;;;4.13;100.00
54994;BME280;40891;47.242;8.648;2024-01-06T05:56:26;95413.59;;;4.14;100.00
54994;BME280;40891;47.242;8.648;2024-01-06T05:58:53;95416.69;;;4.17;100.00
54994;BME280;40891;47.242;8.648;2024-01-06T06:01:19;95414.69;;;4.04;100.00
54994;BME280;40891;47.242;8.648;2024-01-06T06:03:44;95414.63;;;4.21;100.00
54994;BME280;40891;47.242;8.648;2024-01-06T06:06:10;95419.22;;;4.11;100.00
54994;BME280;40891;47.242;8.648;2024-01-06T06:08:35;95420.41;;;4.10;100.00
54994;BME280;40891;47.242;8.648;2024-01-06T06:11:01;95420.19;;;4.04;100.00
54994;BME280;40891;47.242;8.648;2024-01-06T06:13:29;95421.72;;;4.05;100.00
54994;BME280;40891;47.242;8.648;2024-01-06T06:15:54;95414.72;;;4.17;100.00
54994;BME280;40891;47.242;8.648;2024-01-06T06:18:20;95421.03;;;4.01;100.00
54994;BME280;40891;47.242;8.648;2024-01-06T06:20:45;95426.53;;;4.01;100.00
54994;BME280;40891;47.242;8.648;2024-01-06T06:23:11;95423.72;;;3.89;100.00
54994;BME280;40891;47.242;8.648;2024-01-06T06:25:38;95422.00;;;3.95;100.00
54994;BME280;40891;47.242;8.648;2024-01-06T06:28:04;95426.47;;;3.89;100.00
54994;BME280;40891;47.242;8.648;2024-01-06T06:30:29;95423.47;;;3.83;100.00
54994;BME280;40891;47.242;8.648;2024-01-06T06:32:54;95417.13;;;3.86;100.00
54994;BME280;40891;47.242;8.648;2024-01-06T06:35:20;95423.91;;;3.82;100.00
54994;BME280;40891;47.242;8.648;2024-01-06T06:37:45;95431.81;;;3.80;100.00
54994;BME280;40891;47.242;8.648;2024-01-06T06:40:10;95419.19;;;3.82;100.00
54994;BME280;40891;47.242;8.648;2024-01-06T06:42:36;95424.03;;;3.78;100.00
54994;BME280;40891;47.242;8.648;2024-01-06T06:45:01;95427.09;;;3.80;100.00
54994;BME280;40891;47.242;8.648;2024-01-06T06:47:26;95434.13;;;3.81;100.00
54994;BME280;40891;47.242;8.648;2024-01-06T06:49:52;95439.28;;;3.79;100.00
54994;BME280;40891;47.242;8.648;2024-01-06T06:52:17;95439.63;;;3.81;100.00
54994;BME280;40891;47.242;8.648;2024-01-06T06:54:42;95444.00;;;3.79;100.00
54994;BME280;40891;47.242;8.648;2024-01-06T06:57:07;95448.38;;;3.76;100.00
54994;BME280;40891;47.242;8.648;2024-01-06T06:59:33;95452.38;;;3.75;100.00
54994;BME280;40891;47.242;8.648;2024-01-06T07:01:58;95449.00;;;3.84;100.00
54994;BME280;40891;47.242;8.648;2024-01-06T07:04:23;95444.59;;;3.86;100.00
54994;BME280;40891;47.242;8.648;2024-01-06T07:06:51;95444.09;;;3.91;100.00
54994;BME280;40891;47.242;8.648;2024-01-06T07:09:16;95449.41;;;3.98;100.00
54994;BME280;40891;47.242;8.648;2024-01-06T07:11:41;95447.09;;;3.97;100.00
54994;BME280;40891;47.242;8.648;2024-01-06T07:14:07;95449.31;;;4.02;100.00
54994;BME280;40891;47.242;8.648;2024-01-06T07:16:34;95447.88;;;3.97;100.00
54994;BME280;40891;47.242;8.648;2024-01-06T07:19:00;95453.38;;;3.97;100.00
54994;BME280;40891;47.242;8.648;2024-01-06T07:21:25;95453.94;;;4.05;100.00
54994;BME280;40891;47.242;8.648;2024-01-06T07:23:50;95456.59;;;4.08;100.00
54994;BME280;40891;47.242;8.648;2024-01-06T07:26:15;95459.78;;;4.07;100.00
54994;BME280;40891;47.242;8.648;2024-01-06T07:28:41;95473.53;;;4.07;100.00
54994;BME280;40891;47.242;8.648;2024-01-06T07:31:06;95465.91;;;4.27;100.00
54994;BME280;40891;47.242;8.648;2024-01-06T07:33:31;95471.63;;;4.20;100.00
54994;BME280;40891;47.242;8.648;2024-01-06T07:35:57;95471.03;;;4.12;100.00
54994;BME280;40891;47.242;8.648;2024-01-06T07:38:22;95480.56;;;4.08;100.00
54994;BME280;40891;47.242;8.648;2024-01-06T07:40:47;95481.53;;;4.01;100.00
54994;BME280;40891;47.242;8.648;2024-01-06T07:43:12;95477.66;;;3.99;100.00
54994;BME280;40891;47.242;8.648;2024-01-06T07:45:38;95487.03;;;4.01;100.00
54994;BME280;40891;47.242;8.648;2024-01-06T07:48:03;95491.41;;;3.99;100.00
54994;BME280;40891;47.242;8.648;2024-01-06T07:50:28;95494.06;;;4.02;100.00
54994;BME280;40891;47.242;8.648;2024-01-06T07:52:54;95492.44;;;4.05;100.00
54994;BME280;40891;47.242;8.648;2024-01-06T07:55:19;95488.81;;;4.08;100.00
54994;BME280;40891;47.242;8.648;2024-01-06T07:57:45;95491.41;;;4.15;100.00
54994;BME280;40891;47.242;8.648;2024-01-06T08:00:11;95491.31;;;4.19;100.00
54994;BME280;40891;47.242;8.648;2024-01-06T08:02:40;95496.03;;;4.18;100.00
54994;BME280;40891;47.242;8.648;2024-01-06T08:05:05;95505.28;;;4.24;100.00
54994;BME280;40891;47.242;8.648;2024-01-06T08:07:32;95499.78;;;4.24;100.00
54994;BME280;40891;47.242;8.648;2024-01-06T08:09:57;95503.00;;;4.23;100.00
54994;BME280;40891;47.242;8.648;2024-01-06T08:12:22;95503.44;;;4.21;100.00
54994;BME280;40891;47.242;8.648;2024-01-06T08:14:47;95492.75;;;4.23;100.00
54994;BME280;40891;47.242;8.648;2024-01-06T08:17:13;95499.00;;;4.24;100.00
54994;BME280;40891;47.242;8.648;2024-01-06T08:19:38;95491.13;;;4.26;100.00
54994;BME280;40891;47.242;8.648;2024-01-06T08:22:03;95502.88;;;4.26;100.00
54994;BME280;40891;47.242;8.648;2024-01-06T08:24:32;95492.25;;;4.28;100.00
54994;BME280;40891;47.242;8.648;2024-01-06T08:26:57;95504.00;;;4.29;100.00
54994;BME280;40891;47.242;8.648;2024-01-06T08:29:22;95498.81;;;4.31;100.00
54994;BME280;40891;47.242;8.648;2024-01-06T08:31:48;95499.41;;;4.38;100.00
54994;BME280;40891;47.242;8.648;2024-01-06T08:34:15;95503.19;;;4.44;100.00
54994;BME280;40891;47.242;8.648;2024-01-06T08:36:41;95505.50;;;4.46;100.00
54994;BME280;40891;47.242;8.648;2024-01-06T08:39:06;95508.06;;;4.53;100.00
54994;BME280;40891;47.242;8.648;2024-01-06T08:41:33;95514.78;;;4.52;100.00
54994;BME280;40891;47.242;8.648;2024-01-06T08:43:59;95516.97;;;4.57;100.00
54994;BME280;40891;47.242;8.648;2024-01-06T08:46:24;95514.44;;;4.50;100.00
54994;BME280;40891;47.242;8.648;2024-01-06T08:48:50;95517.19;;;4.50;100.00
54994;BME280;40891;47.242;8.648;2024-01-06T08:51:15;95519.94;;;4.50;100.00
54994;BME280;40891;47.242;8.648;2024-01-06T08:53:40;95517.19;;;4.50;100.00
54994;BME280;40891;47.242;8.648;2024-01-06T08:56:06;95519.59;;;4.48;100.00
54994;BME280;40891;47.242;8.648;2024-01-06T08:58:31;95525.03;;;4.51;100.00
54994;BME280;40891;47.242;8.648;2024-01-06T09:00:56;95523.28;;;4.57;100.00
54994;BME280;40891;47.242;8.648;2024-01-06T09:03:22;95531.78;;;4.63;100.00
54994;BME280;40891;47.242;8.648;2024-01-06T09:05:52;95527.72;;;4.67;100.00
54994;BME280;40891;47.242;8.648;2024-01-06T09:08:17;95525.22;;;4.73;100.00
54994;BME280;40891;47.242;8.648;2024-01-06T09:10:43;95530.34;;;4.71;100.00
54994;BME280;40891;47.242;8.648;2024-01-06T09:13:09;95532.84;;;4.81;100.00
54994;BME280;40891;47.242;8.648;2024-01-06T09:15:34;95528.31;;;4.75;100.00
54994;BME280;40891;47.242;8.648;2024-01-06T09:17:59;95530.53;;;4.80;100.00
54994;BME280;40891;47.242;8.648;2024-01-06T09:20:25;95534.72;;;4.85;100.00
54994;BME280;40891;47.242;8.648;2024-01-06T09:22:52;95540.66;;;4.83;100.00
54994;BME280;40891;47.242;8.648;2024-01-06T09:25:17;95537.88;;;4.83;100.00
54994;BME280;40891;47.242;8.648;2024-01-06T09:27:43;95545.47;;;4.79;100.00
54994;BME280;40891;47.242;8.648;2024-01-06T09:30:08;95551.00;;;4.79;100.00
54994;BME280;40891;47.242;8.648;2024-01-06T09:32:34;95549.22;;;4.85;100.00
54994;BME280;40891;47.242;8.648;2024-01-06T09:34:59;95544.19;;;4.83;100.00
54994;BME280;40891;47.242;8.648;2024-01-06T09:37:24;95546.16;;;4.83;100.00
54994;BME280;40891;47.242;8.648;2024-01-06T09:39:49;95553.56;;;4.86;100.00
54994;BME280;40891;47.242;8.648;2024-01-06T09:42:15;95551.13;;;4.88;100.00
54994;BME280;40891;47.242;8.648;2024-01-06T09:44:41;95547.72;;;4.84;100.00
54994;BME280;40891;47.242;8.648;2024-01-06T09:47:08;95550.91;;;4.82;100.00
54994;BME280;40891;47.242;8.648;2024-01-06T09:49:38;95546.06;;;4.87;100.00
54994;BME280;40891;47.242;8.648;2024-01-06T09:52:08;95549.94;;;4.89;100.00
54994;BME280;40891;47.242;8.648;2024-01-06T09:54:40;95549.16;;;4.89;100.00
54994;BME280;40891;47.242;8.648;2024-01-06T09:57:09;95549.59;;;4.87;100.00
54994;BME280;40891;47.242;8.648;2024-01-06T09:59:35;95553.00;;;4.91;100.00
54994;BME280;40891;47.242;8.648;2024-01-06T10:02:03;95550.06;;;4.98;100.00
54994;BME280;40891;47.242;8.648;2024-01-06T10:04:29;95548.88;;;4.99;100.00
54994;BME280;40891;47.242;8.648;2024-01-06T10:06:54;95546.56;;;5.10;100.00
54994;BME280;40891;47.242;8.648;2024-01-06T10:09:26;95545.53;;;5.04;100.00
54994;BME280;40891;47.242;8.648;2024-01-06T10:11:55;95546.91;;;5.12;100.00
54994;BME280;40891;47.242;8.648;2024-01-06T10:14:21;95541.13;;;4.94;100.00
54994;BME280;40891;47.242;8.648;2024-01-06T10:16:46;95543.44;;;4.96;100.00
54994;BME280;40891;47.242;8.648;2024-01-06T10:19:14;95544.31;;;4.93;100.00
54994;BME280;40891;47.242;8.648;2024-01-06T10:21:39;95538.66;;;4.83;100.00
54994;BME280;40891;47.242;8.648;2024-01-06T10:24:08;95543.56;;;4.92;100.00
54994;BME280;40891;47.242;8.648;2024-01-06T10:26:33;95541.34;;;4.87;100.00
54994;BME280;40891;47.242;8.648;2024-01-06T10:28:59;95539.44;;;4.84;100.00
54994;BME280;40891;47.242;8.648;2024-01-06T10:31:25;95536.03;;;4.80;100.00
54994;BME280;40891;47.242;8.648;2024-01-06T10:33:51;95528.31;;;4.75;100.00
54994;BME280;40891;47.242;8.648;2024-01-06T10:36:16;95535.34;;;4.76;100.00
54994;BME280;40891;47.242;8.648;2024-01-06T10:38:42;95529.16;;;4.72;100.00
54994;BME280;40891;47.242;8.648;2024-01-06T10:41:09;95527.41;;;4.78;100.00
54994;BME280;40891;47.242;8.648;2024-01-06T10:43:36;95526.88;;;4.83;100.00
54994;BME280;40891;47.242;8.648;2024-01-06T10:46:05;95520.84;;;4.88;100.00
54994;BME280;40891;47.242;8.648;2024-01-06T10:48:35;95519.78;;;4.98;100.00
54994;BME280;40891;47.242;8.648;2024-01-06T10:51:03;95525.72;;;4.97;100.00
54994;BME280;40891;47.242;8.648;2024-01-06T10:53:32;95522.53;;;4.98;100.00
54994;BME280;40891;47.242;8.648;2024-01-06T10:55:59;95518.91;;;5.01;100.00
54994;BME280;40891;47.242;8.648;2024-01-06T10:58:24;95517.91;;;5.08;100.00
54994;BME280;40891;47.242;8.648;2024-01-06T11:00:50;95524.00;;;5.15;100.00
54994;BME280;40891;47.242;8.648;2024-01-06T11:03:17;95526.41;;;5.13;100.00
54994;BME280;40891;47.242;8.648;2024-01-06T11:05:43;95518.00;;;5.04;100.00
54994;BME280;40891;47.242;8.648;2024-01-06T11:08:09;95526.72;;;5.03;100.00
54994;BME280;40891;47.242;8.648;2024-01-06T11:10:36;95524.19;;;5.08;100.00
54994;BME280;40891;47.242;8.648;2024-01-06T11:13:07;95524.94;;;5.09;100.00
54994;BME280;40891;47.242;8.648;2024-01-06T11:15:41;95523.09;;;5.06;100.00
54994;BME280;40891;47.242;8.648;2024-01-06T11:18:06;95519.22;;;5.03;100.00
54994;BME280;40891;47.242;8.648;2024-01-06T11:20:32;95517.47;;;4.97;100.00
54994;BME280;40891;47.242;8.648;2024-01-06T11:23:17;95526.84;;;4.99;100.00
54994;BME280;40891;47.242;8.648;2024-01-06T11:25:43;95519.78;;;4.98;100.00
54994;BME280;40891;47.242;8.648;2024-01-06T11:28:09;95520.44;;;5.02;100.00
54994;BME280;40891;47.242;8.648;2024-01-06T11:30:37;95525.94;;;5.02;100.00
54994;BME280;40891;47.242;8.648;2024-01-06T11:33:04;95520.66;;;5.08;100.00
54994;BME280;40891;47.242;8.648;2024-01-06T11:35:30;95524.28;;;5.05;100.00
54994;BME280;40891;47.242;8.648;2024-01-06T11:37:57;95516.63;;;5.25;100.00
54994;BME280;40891;47.242;8.648;2024-01-06T11:45:25;95518.16;;;5.13;100.00
54994;BME280;40891;47.242;8.648;2024-01-06T11:47:55;95516.72;;;5.21;100.00
54994;BME280;40891;47.242;8.648;2024-01-06T11:50:21;95503.28;;;5.23;100.00
54994;BME280;40891;47.242;8.648;2024-01-06T11:52:46;95504.47;;;5.10;100.00
54994;BME280;40891;47.242;8.648;2024-01-06T11:55:12;95501.41;;;5.20;100.00
54994;BME280;40891;47.242;8.648;2024-01-06T11:57:37;95497.66;;;5.27;100.00
54994;BME280;40891;47.242;8.648;2024-01-06T12:00:03;95490.06;;;5.31;100.00
54994;BME280;40891;47.242;8.648;2024-01-06T12:02:29;95498.66;;;5.20;100.00
54994;BME280;40891;47.242;8.648;2024-01-06T12:04:54;95499.63;;;5.14;100.00
54994;BME280;40891;47.242;8.648;2024-01-06T12:07:21;95497.75;;;5.11;100.00
54994;BME280;40891;47.242;8.648;2024-01-06T12:09:51;95495.44;;;5.09;100.00
54994;BME280;40891;47.242;8.648;2024-01-06T12:12:25;95500.41;;;5.27;100.00
54994;BME280;40891;47.242;8.648;2024-01-06T12:14:50;95485.09;;;5.13;100.00
54994;BME280;40891;47.242;8.648;2024-01-06T12:17:16;95483.63;;;5.09;100.00
54994;BME280;40891;47.242;8.648;2024-01-06T12:19:41;95488.50;;;5.17;100.00
54994;BME280;40891;47.242;8.648;2024-01-06T12:22:10;95490.47;;;5.04;100.00
54994;BME280;40891;47.242;8.648;2024-01-06T12:24:36;95483.97;;;4.98;100.00
54994;BME280;40891;47.242;8.648;2024-01-06T12:27:01;95477.78;;;4.94;100.00
54994;BME280;40891;47.242;8.648;2024-01-06T12:29:27;95481.88;;;4.90;100.00
54994;BME280;40891;47.242;8.648;2024-01-06T12:31:59;95485.50;;;4.87;100.00
54994;BME280;40891;47.242;8.648;2024-01-06T12:34:24;95480.06;;;4.83;100.00
54994;BME280;40891;47.242;8.648;2024-01-06T12:36:52;95481.06;;;4.76;100.00
54994;BME280;40891;47.242;8.648;2024-01-06T12:39:18;95479.53;;;4.75;100.00
54994;BME280;40891;47.242;8.648;2024-01-06T12:41:43;95478.63;;;4.78;100.00
54994;BME280;40891;47.242;8.648;2024-01-06T12:44:09;95477.75;;;4.81;100.00
54994;BME280;40891;47.242;8.648;2024-01-06T12:46:35;95480.06;;;4.83;100.00
54994;BME280;40891;47.242;8.648;2024-01-06T12:49:01;95476.66;;;4.79;100.00
54994;BME280;40891;47.242;8.648;2024-01-06T12:51:27;95483.72;;;4.80;100.00
54994;BME280;40891;47.242;8.648;2024-01-06T12:53:52;95487.56;;;4.82;100.00
54994;BME280;40891;47.242;8.648;2024-01-06T12:56:18;95484.81;;;4.82;100.00
54994;BME280;40891;47.242;8.648;2024-01-06T12:58:43;95474.69;;;4.79;100.00